Pine Prairie, LA (70576)

10:24 PM CDT on September 14, 2014 (GMT -0500)
Oakdale | Change Station
CLOSE
Current Station
Airport
Location: Oakdale,
Elevation: 108 ft
Nearby Weather Stations

Elev 108 ft 30.75 °N, 92.69 °W | Updated 9 minutes ago

Clear
Clear
69 °F
Feels Like 69 °F
N
0
Wind Variable Wind from North

Today
High -- | Low -- °F
--% Chance of Precip.
Yesterday
High -- | Low -- °F
Precip. -- in
6:53 AM 7:16 PM
Waning Gibbous, 59% visible
Pressure 30.13 in
Visibility 7.0 miles
Clouds Clear
Dew Point 68 °F
Humidity 94%
Rainfall 0.00 in
Snow Depth Not available.
UV 0 out of 12
Pollen 9.00 out of 12
Air Quality Not available.
Flu Activity Not available.
METAR KACP 150315Z AUTO 00000KT 7SM CLR 21/20 A3013 RMK AO2 T02070197

More Conditions Fewer Conditions

Pressure 30.13 in
Visibility 7.0 miles
Clouds Clear
Dew Point 68 °F
Humidity 94%
Rainfall 0.00 in
Snow Depth Not available.
UV 0 out of 12
Pollen 9.00 out of 12
Air Quality Not available.
Flu Activity Not available.
METAR KACP 150315Z AUTO 00000KT 7SM CLR 21/20 A3013 RMK AO2 T02070197

More Conditions Fewer Conditions

10-Day Weather Forecast

Almanac

Astronomy

Sep. 14, 2014 Rise Set
Actual Time 6:53 AM CDT 7:16 PM CDT
Civil Twilight 6:29 AM CDT 7:40 PM CDT
Nautical Twilight 6:00 AM CDT 8:08 PM CDT
Astronomical Twilight 5:32 AM CDT 8:37 PM CDT
Moon 11:32 PM CDT (9/14) 12:37 PM CDT (9/14)
Length of Visible Light 13h 11m
Length of Day
12h 23m
Tomorrow will be 1m 51s shorter.
Waning Gibbous, 59% of the Moon is Illuminated
Today
Waning Gibbous
Sep 15
Last Quarter
Sep 24
New
Oct 1
First Quarter
Oct 8
Full

Today's Extremes

State Highs State Lows

Community

WunderPhotos

Upload Photos

1,753,390 photos uploaded!

WunderBlogs® & News

Nearby

Snow Depth

Station Depth Elevation
No new snow has been reported.

Earthquake Activity

City Distance Mag. Time & Date
No recent earthquake activity has been reported nearby.
Minimum magnitude displayed is 2.5.

Coastal Water Temperatures

Place Temperature
No Stations Reporting

Nearby Weather Stations